CheckWX is a tool to help pilots better visualize weather data.  It is not intended as a substitute for an official pre-flight weather briefing.

04:18:05 UTC

KDZJ METAR
Blairsville Airport
Blairsville, Georgia, USA
Current

23 mins ago

KDZJ 270355Z AUTO 00000KT 10SM CLR 19/18 A3028 RMK AO2 T01870181
Observed
Jun-27 @ 03:55 UTC
Visibility
10 SM
Flight Rules
VFR
Cloud Levels
  • Clear skies
Temperature
19°C / 66°F
Dewpoint
18°C / 64°F
Humidity
94%
Altimeter
30.28" Hg
Pressure
1025.42 hPa
Previous

43 mins ago

KDZJ 270335Z AUTO 00000KT 10SM CLR 19/18 A3027 RMK AO2 T01890179
Observed
Jun-27 @ 03:35 UTC
Visibility
10 SM
Flight Rules
VFR
Cloud Levels
  • Clear skies
Temperature
19°C / 66°F
Dewpoint
18°C / 64°F
Humidity
94%
Altimeter
30.27" Hg
Pressure
1025.02 hPa
Previous

1 hour ago

KDZJ 270315Z AUTO 00000KT 10SM CLR 19/18 A3027 RMK AO2 T01900183
Observed
Jun-27 @ 03:15 UTC
Visibility
10 SM
Flight Rules
VFR
Cloud Levels
  • Clear skies
Temperature
19°C / 66°F
Dewpoint
18°C / 64°F
Humidity
94%
Altimeter
30.27" Hg
Pressure
1025.02 hPa